< Cyclone 200506 2005 Season Cyclone 200508 >
Cyclone 200507 (INGRID)
General InformationTrack Information on Google MapsDetailed Wind InformationList of All Images || ResourceGoogle EarthGE AnimationAtom FeedGeoJSON
Detalied Best Track (Time Zone = UTC)
Year Month Day Hour Lat. Long. Pressure (hPa) Wind (kt) Class Image Chart
2005 3 4 00 -11.4 140.0 1007 20 2 Image --
2005 3 4 06 -11.4 141.0 1007 20 2 Image --
2005 3 4 12 -11.4 142.0 1007 25 2 Image --
2005 3 4 18 -11.4 143.3 1007 25 2 Image --
2005 3 5 00 -11.6 144.3 1007 30 2 Image --
2005 3 5 06 -11.9 145.2 1004 30 2 Image --
2005 3 5 12 -12.2 146.4 1004 35 3 Image --
2005 3 5 18 -12.3 148.0 1002 35 3 Image --
2005 3 6 00 -12.6 148.2 1000 40 3 Image --
2005 3 6 03 -12.9 148.2 990 45 3 Image --
2005 3 6 06 -13.3 148.4 985 50 4 Image --
2005 3 6 12 -13.5 148.7 975 70 5 Image --
2005 3 6 18 -13.7 149.0 965 80 5 Image --
2005 3 7 00 -14.0 148.7 960 85 5 Image --
2005 3 7 06 -14.2 148.6 945 100 5 Image --
2005 3 7 12 -14.2 148.4 945 100 5 Image --
2005 3 7 18 -13.9 147.9 940 110 5 Image --
2005 3 8 00 -13.7 147.4 935 115 5 Image --
2005 3 8 06 -13.9 146.9 930 120 5 Image --
2005 3 8 12 -13.8 146.5 935 115 5 Image --
2005 3 8 18 -13.5 146.1 940 110 5 Image --
2005 3 9 00 -13.5 145.6 940 110 5 Image --
2005 3 9 06 -13.3 145.1 945 100 5 Image --
2005 3 9 12 -13.2 144.5 960 90 5 Image --
2005 3 9 15 -13.2 144.0 960 90 5 Image --
2005 3 9 16 -13.2 144.0 960 90 5 Image --
2005 3 9 18 -13.1 143.8 955 95 5 Image --
2005 3 9 19 -13.1 143.7 955 95 5 Image --
2005 3 9 20 -13.2 143.5 953 97 5 Image --
2005 3 9 21 -13.2 143.4 965 85 5 Image --
2005 3 10 00 -13.1 142.8 975 60 4 Image --
2005 3 10 06 -13.1 142.3 985 50 4 Image --
2005 3 10 12 -12.9 141.5 990 40 3 Image --
2005 3 10 18 -12.6 140.1 978 60 4 Image --
2005 3 11 00 -12.4 139.4 970 70 5 Image --
2005 3 11 03 -12.4 139.0 961 80 5 Image --
2005 3 11 06 -12.2 138.7 956 85 5 Image --
2005 3 11 09 -12.1 138.2 951 90 5 Image --
2005 3 11 12 -12.0 137.8 944 100 5 Image --
2005 3 11 15 -11.9 137.3 937 115 5 Image --
2005 3 11 18 -11.8 136.8 924 125 5 Image --
2005 3 11 21 -11.7 136.3 924 125 5 Image --
2005 3 12 00 -11.5 135.9 924 125 5 Image --
2005 3 12 03 -11.5 135.3 924 125 5 Image --
2005 3 12 06 -11.4 134.9 924 125 5 Image --
2005 3 12 09 -11.4 134.4 924 125 5 Image --
2005 3 12 12 -11.3 133.9 924 125 5 Image --
2005 3 12 15 -11.2 133.3 934 115 5 Image --
2005 3 12 18 -11.1 132.9 948 100 5 Image --
2005 3 12 21 -11.1 132.5 948 90 5 Image --
2005 3 13 00 -11.1 132.1 950 90 5 Image --
2005 3 13 03 -11.2 131.7 956 80 5 Image --
2005 3 13 06 -11.2 131.3 956 80 5 Image --
2005 3 13 09 -11.3 131.1 963 70 5 Image --
2005 3 13 12 -11.3 130.8 964 70 5 Image --
2005 3 13 15 -11.3 130.5 966 70 5 Image --
2005 3 13 18 -11.4 130.3 971 60 4 Image --
2005 3 13 21 -11.5 130.0 971 60 4 Image --
2005 3 14 00 -11.4 129.7 966 70 5 Image --
2005 3 14 03 -11.5 129.6 964 70 5 Image --
2005 3 14 06 -11.7 129.4 964 70 5 Image --
2005 3 14 09 -11.9 129.1 954 80 5 Image --
2005 3 14 12 -11.9 128.7 946 90 5 Image --
2005 3 14 15 -12.0 128.4 946 90 5 Image --
2005 3 14 18 -12.0 128.3 946 90 5 Image --
2005 3 14 21 -12.4 128.3 942 100 5 Image --
2005 3 15 00 -12.7 127.9 942 100 5 Image --
2005 3 15 03 -12.8 127.7 940 100 5 Image --
2005 3 15 06 -13.1 127.5 940 100 5 Image --
2005 3 15 09 -13.4 127.4 940 100 5 Image --
2005 3 15 12 -13.7 127.1 940 100 5 Image --
2005 3 15 15 -13.9 126.8 956 80 5 Image --
2005 3 15 18 -14.0 126.6 963 70 5 Image --
2005 3 15 21 -14.0 126.5 969 60 4 Image --
2005 3 16 00 -14.2 126.4 973 55 4 Image --
2005 3 16 03 -14.3 126.5 978 50 4 Image --
2005 3 16 06 -14.4 126.8 980 45 3 Image --
2005 3 16 09 -14.7 127.1 982 40 3 Image --
2005 3 16 12 -14.9 127.4 983 40 3 Image --
2005 3 16 15 -15.0 127.8 987 35 3 Image --
2005 3 16 18 -15.1 128.1 988 35 3 Image --
2005 3 16 21 -15.2 128.4 991 30 2 Image --
< Cyclone 200506 2005 Season Cyclone 200508 >

Help